sensor_id;sensor_type;location;lat;lon;timestamp;P1;durP1;ratioP1;P2;durP2;ratioP2
41512;SDS011;27244;59.940;30.280;2023-02-23T00:02:00;16.63;;;10.95;;
41512;SDS011;27244;59.940;30.280;2023-02-23T00:04:31;14.15;;;10.18;;
41512;SDS011;27244;59.940;30.280;2023-02-23T00:06:59;12.95;;;9.85;;
41512;SDS011;27244;59.940;30.280;2023-02-23T00:09:27;14.48;;;10.80;;
41512;SDS011;27244;59.940;30.280;2023-02-23T00:12:00;16.35;;;10.10;;
41512;SDS011;27244;59.940;30.280;2023-02-23T00:14:32;11.77;;;9.40;;
41512;SDS011;27244;59.940;30.280;2023-02-23T00:17:01;15.85;;;10.57;;
41512;SDS011;27244;59.940;30.280;2023-02-23T00:19:29;13.88;;;10.45;;
41512;SDS011;27244;59.940;30.280;2023-02-23T00:21:57;13.90;;;9.70;;
41512;SDS011;27244;59.940;30.280;2023-02-23T00:24:25;15.13;;;10.35;;
41512;SDS011;27244;59.940;30.280;2023-02-23T00:26:53;12.40;;;9.25;;
41512;SDS011;27244;59.940;30.280;2023-02-23T00:29:21;14.38;;;9.43;;
41512;SDS011;27244;59.940;30.280;2023-02-23T00:31:50;13.82;;;9.82;;
41512;SDS011;27244;59.940;30.280;2023-02-23T00:34:18;15.13;;;10.00;;
41512;SDS011;27244;59.940;30.280;2023-02-23T00:36:48;11.90;;;9.52;;
41512;SDS011;27244;59.940;30.280;2023-02-23T00:39:16;12.90;;;9.73;;
41512;SDS011;27244;59.940;30.280;2023-02-23T00:41:46;10.90;;;8.52;;
41512;SDS011;27244;59.940;30.280;2023-02-23T00:44:15;11.68;;;9.18;;
41512;SDS011;27244;59.940;30.280;2023-02-23T00:46:43;11.20;;;8.93;;
41512;SDS011;27244;59.940;30.280;2023-02-23T00:49:13;11.38;;;8.55;;
41512;SDS011;27244;59.940;30.280;2023-02-23T00:51:40;12.90;;;9.52;;
41512;SDS011;27244;59.940;30.280;2023-02-23T00:54:09;10.18;;;8.80;;
41512;SDS011;27244;59.940;30.280;2023-02-23T00:56:37;10.75;;;8.57;;
41512;SDS011;27244;59.940;30.280;2023-02-23T00:59:05;12.88;;;9.45;;
41512;SDS011;27244;59.940;30.280;2023-02-23T01:01:34;11.35;;;9.02;;
41512;SDS011;27244;59.940;30.280;2023-02-23T01:04:01;9.93;;;8.43;;
41512;SDS011;27244;59.940;30.280;2023-02-23T01:06:29;12.23;;;8.93;;
41512;SDS011;27244;59.940;30.280;2023-02-23T01:08:56;10.77;;;8.32;;
41512;SDS011;27244;59.940;30.280;2023-02-23T01:11:25;10.85;;;8.82;;
41512;SDS011;27244;59.940;30.280;2023-02-23T01:13:56;10.48;;;8.93;;
41512;SDS011;27244;59.940;30.280;2023-02-23T01:16:25;10.68;;;8.50;;
41512;SDS011;27244;59.940;30.280;2023-02-23T01:18:55;13.20;;;9.38;;
41512;SDS011;27244;59.940;30.280;2023-02-23T01:21:24;10.93;;;8.55;;
41512;SDS011;27244;59.940;30.280;2023-02-23T01:23:53;10.85;;;8.50;;
41512;SDS011;27244;59.940;30.280;2023-02-23T01:26:22;11.05;;;8.70;;
41512;SDS011;27244;59.940;30.280;2023-02-23T01:28:53;10.52;;;8.43;;
41512;SDS011;27244;59.940;30.280;2023-02-23T01:31:23;10.63;;;8.68;;
41512;SDS011;27244;59.940;30.280;2023-02-23T01:33:51;11.30;;;8.25;;
41512;SDS011;27244;59.940;30.280;2023-02-23T01:36:20;12.13;;;8.68;;
41512;SDS011;27244;59.940;30.280;2023-02-23T01:38:47;10.93;;;9.00;;
41512;SDS011;27244;59.940;30.280;2023-02-23T01:41:14;11.95;;;9.05;;
41512;SDS011;27244;59.940;30.280;2023-02-23T01:43:54;10.43;;;8.50;;
41512;SDS011;27244;59.940;30.280;2023-02-23T01:46:22;10.65;;;9.13;;
41512;SDS011;27244;59.940;30.280;2023-02-23T01:48:49;10.52;;;8.45;;
41512;SDS011;27244;59.940;30.280;2023-02-23T01:51:22;12.02;;;8.35;;
41512;SDS011;27244;59.940;30.280;2023-02-23T01:53:53;10.40;;;8.68;;
41512;SDS011;27244;59.940;30.280;2023-02-23T01:56:24;9.18;;;7.97;;
41512;SDS011;27244;59.940;30.280;2023-02-23T01:58:56;9.82;;;8.00;;
41512;SDS011;27244;59.940;30.280;2023-02-23T02:01:27;11.02;;;8.20;;
41512;SDS011;27244;59.940;30.280;2023-02-23T02:03:55;11.13;;;8.65;;
41512;SDS011;27244;59.940;30.280;2023-02-23T02:06:26;10.95;;;8.23;;
41512;SDS011;27244;59.940;30.280;2023-02-23T02:08:55;9.82;;;8.48;;
41512;SDS011;27244;59.940;30.280;2023-02-23T02:11:25;9.13;;;7.95;;
41512;SDS011;27244;59.940;30.280;2023-02-23T02:14:01;10.23;;;8.15;;
41512;SDS011;27244;59.940;30.280;2023-02-23T02:19:52;10.93;;;8.15;;
41512;SDS011;27244;59.940;30.280;2023-02-23T02:26:14;10.15;;;8.27;;
41512;SDS011;27244;59.940;30.280;2023-02-23T02:28:54;9.88;;;8.07;;
41512;SDS011;27244;59.940;30.280;2023-02-23T02:31:58;10.82;;;8.23;;
41512;SDS011;27244;59.940;30.280;2023-02-23T02:34:49;10.23;;;7.70;;
41512;SDS011;27244;59.940;30.280;2023-02-23T02:37:39;12.85;;;8.23;;
41512;SDS011;27244;59.940;30.280;2023-02-23T02:40:23;9.23;;;7.85;;
41512;SDS011;27244;59.940;30.280;2023-02-23T02:43:00;9.85;;;8.20;;
41512;SDS011;27244;59.940;30.280;2023-02-23T02:45:40;9.82;;;7.95;;
41512;SDS011;27244;59.940;30.280;2023-02-23T02:48:14;10.73;;;8.23;;
41512;SDS011;27244;59.940;30.280;2023-02-23T02:50:46;9.35;;;7.97;;
41512;SDS011;27244;59.940;30.280;2023-02-23T02:53:21;9.25;;;7.55;;
41512;SDS011;27244;59.940;30.280;2023-02-23T02:55:54;11.05;;;8.00;;
41512;SDS011;27244;59.940;30.280;2023-02-23T02:58:25;9.25;;;7.43;;
41512;SDS011;27244;59.940;30.280;2023-02-23T03:00:53;9.93;;;7.40;;
41512;SDS011;27244;59.940;30.280;2023-02-23T03:03:38;10.02;;;7.85;;
41512;SDS011;27244;59.940;30.280;2023-02-23T03:06:25;10.88;;;8.20;;
41512;SDS011;27244;59.940;30.280;2023-02-23T03:09:18;10.15;;;8.13;;
41512;SDS011;27244;59.940;30.280;2023-02-23T03:12:10;9.20;;;7.47;;
41512;SDS011;27244;59.940;30.280;2023-02-23T03:15:07;10.00;;;7.80;;
41512;SDS011;27244;59.940;30.280;2023-02-23T03:18:09;9.68;;;8.27;;
41512;SDS011;27244;59.940;30.280;2023-02-23T03:21:02;9.57;;;7.78;;
41512;SDS011;27244;59.940;30.280;2023-02-23T03:23:55;9.05;;;7.80;;
41512;SDS011;27244;59.940;30.280;2023-02-23T03:26:52;11.02;;;8.57;;
41512;SDS011;27244;59.940;30.280;2023-02-23T03:29:42;9.95;;;7.85;;
41512;SDS011;27244;59.940;30.280;2023-02-23T03:32:33;11.02;;;8.20;;
41512;SDS011;27244;59.940;30.280;2023-02-23T03:35:25;9.88;;;8.32;;
41512;SDS011;27244;59.940;30.280;2023-02-23T03:38:14;9.25;;;7.63;;
41512;SDS011;27244;59.940;30.280;2023-02-23T03:41:02;10.45;;;8.32;;
41512;SDS011;27244;59.940;30.280;2023-02-23T03:43:52;11.35;;;9.07;;
41512;SDS011;27244;59.940;30.280;2023-02-23T03:46:41;10.55;;;8.15;;
41512;SDS011;27244;59.940;30.280;2023-02-23T03:49:29;11.15;;;7.72;;
41512;SDS011;27244;59.940;30.280;2023-02-23T03:52:20;10.93;;;8.05;;
41512;SDS011;27244;59.940;30.280;2023-02-23T03:55:09;10.30;;;8.10;;
41512;SDS011;27244;59.940;30.280;2023-02-23T03:57:57;10.90;;;8.50;;
41512;SDS011;27244;59.940;30.280;2023-02-23T04:00:45;10.02;;;8.27;;
41512;SDS011;27244;59.940;30.280;2023-02-23T04:03:32;11.63;;;7.82;;
41512;SDS011;27244;59.940;30.280;2023-02-23T04:06:20;10.80;;;8.48;;
41512;SDS011;27244;59.940;30.280;2023-02-23T04:09:08;9.48;;;8.15;;
41512;SDS011;27244;59.940;30.280;2023-02-23T04:11:55;8.63;;;7.72;;
41512;SDS011;27244;59.940;30.280;2023-02-23T04:14:47;9.20;;;7.55;;
41512;SDS011;27244;59.940;30.280;2023-02-23T04:17:21;10.95;;;8.13;;
41512;SDS011;27244;59.940;30.280;2023-02-23T04:19:56;10.05;;;8.23;;
41512;SDS011;27244;59.940;30.280;2023-02-23T04:22:23;9.40;;;7.72;;
41512;SDS011;27244;59.940;30.280;2023-02-23T04:24:50;10.35;;;8.45;;
41512;SDS011;27244;59.940;30.280;2023-02-23T04:27:17;10.73;;;8.90;;
41512;SDS011;27244;59.940;30.280;2023-02-23T04:29:45;9.23;;;7.65;;
41512;SDS011;27244;59.940;30.280;2023-02-23T04:32:13;10.30;;;7.50;;
41512;SDS011;27244;59.940;30.280;2023-02-23T04:34:42;11.02;;;8.25;;
41512;SDS011;27244;59.940;30.280;2023-02-23T04:37:10;9.63;;;8.38;;
41512;SDS011;27244;59.940;30.280;2023-02-23T04:39:37;9.35;;;7.93;;
41512;SDS011;27244;59.940;30.280;2023-02-23T04:42:05;10.63;;;8.15;;
41512;SDS011;27244;59.940;30.280;2023-02-23T04:44:31;8.93;;;7.85;;
41512;SDS011;27244;59.940;30.280;2023-02-23T04:46:58;9.75;;;7.95;;
41512;SDS011;27244;59.940;30.280;2023-02-23T04:49:25;9.25;;;7.80;;
41512;SDS011;27244;59.940;30.280;2023-02-23T04:51:54;9.57;;;7.82;;
41512;SDS011;27244;59.940;30.280;2023-02-23T04:54:21;11.20;;;8.57;;
41512;SDS011;27244;59.940;30.280;2023-02-23T04:56:48;11.75;;;7.97;;
41512;SDS011;27244;59.940;30.280;2023-02-23T04:59:15;9.30;;;8.02;;
41512;SDS011;27244;59.940;30.280;2023-02-23T05:01:42;10.60;;;8.27;;
41512;SDS011;27244;59.940;30.280;2023-02-23T05:04:09;10.82;;;8.85;;
41512;SDS011;27244;59.940;30.280;2023-02-23T05:06:37;9.35;;;7.72;;
41512;SDS011;27244;59.940;30.280;2023-02-23T05:09:05;9.85;;;7.75;;
41512;SDS011;27244;59.940;30.280;2023-02-23T05:11:32;10.60;;;7.75;;
41512;SDS011;27244;59.940;30.280;2023-02-23T05:13:59;11.75;;;8.43;;
41512;SDS011;27244;59.940;30.280;2023-02-23T05:16:26;11.30;;;8.57;;
41512;SDS011;27244;59.940;30.280;2023-02-23T05:18:53;10.38;;;7.90;;
41512;SDS011;27244;59.940;30.280;2023-02-23T05:21:20;12.90;;;7.90;;
41512;SDS011;27244;59.940;30.280;2023-02-23T05:23:47;9.65;;;7.65;;
41512;SDS011;27244;59.940;30.280;2023-02-23T05:26:16;8.45;;;7.65;;
41512;SDS011;27244;59.940;30.280;2023-02-23T05:28:43;9.88;;;8.48;;
41512;SDS011;27244;59.940;30.280;2023-02-23T05:31:11;10.10;;;8.05;;
41512;SDS011;27244;59.940;30.280;2023-02-23T05:33:38;8.77;;;7.35;;
41512;SDS011;27244;59.940;30.280;2023-02-23T05:36:07;11.20;;;7.40;;
41512;SDS011;27244;59.940;30.280;2023-02-23T05:38:36;9.65;;;7.63;;
41512;SDS011;27244;59.940;30.280;2023-02-23T05:41:03;8.90;;;7.20;;
41512;SDS011;27244;59.940;30.280;2023-02-23T05:43:33;9.75;;;7.05;;
41512;SDS011;27244;59.940;30.280;2023-02-23T05:46:05;8.35;;;7.40;;
41512;SDS011;27244;59.940;30.280;2023-02-23T05:48:32;7.57;;;6.57;;
41512;SDS011;27244;59.940;30.280;2023-02-23T05:51:00;7.85;;;6.72;;
41512;SDS011;27244;59.940;30.280;2023-02-23T05:53:28;8.23;;;6.63;;
41512;SDS011;27244;59.940;30.280;2023-02-23T05:55:55;8.40;;;6.47;;
41512;SDS011;27244;59.940;30.280;2023-02-23T05:58:22;7.03;;;6.32;;
41512;SDS011;27244;59.940;30.280;2023-02-23T06:00:51;9.45;;;6.68;;
41512;SDS011;27244;59.940;30.280;2023-02-23T06:03:18;9.25;;;6.85;;
41512;SDS011;27244;59.940;30.280;2023-02-23T06:05:48;8.02;;;6.18;;
41512;SDS011;27244;59.940;30.280;2023-02-23T06:08:16;8.00;;;6.85;;
41512;SDS011;27244;59.940;30.280;2023-02-23T06:10:43;7.85;;;6.20;;
41512;SDS011;27244;59.940;30.280;2023-02-23T06:13:10;15.73;;;7.50;;
41512;SDS011;27244;59.940;30.280;2023-02-23T06:15:37;20.25;;;7.53;;
41512;SDS011;27244;59.940;30.280;2023-02-23T06:18:06;20.67;;;6.57;;
41512;SDS011;27244;59.940;30.280;2023-02-23T06:20:34;10.68;;;5.90;;
41512;SDS011;27244;59.940;30.280;2023-02-23T06:23:02;13.45;;;7.15;;
41512;SDS011;27244;59.940;30.280;2023-02-23T06:25:30;10.50;;;6.00;;
41512;SDS011;27244;59.940;30.280;2023-02-23T06:27:57;12.35;;;6.15;;
41512;SDS011;27244;59.940;30.280;2023-02-23T06:30:24;12.63;;;6.47;;
41512;SDS011;27244;59.940;30.280;2023-02-23T06:32:51;8.02;;;6.40;;
41512;SDS011;27244;59.940;30.280;2023-02-23T06:35:21;11.13;;;6.40;;
41512;SDS011;27244;59.940;30.280;2023-02-23T06:37:58;11.18;;;5.75;;
41512;SDS011;27244;59.940;30.280;2023-02-23T06:40:26;10.27;;;5.93;;
41512;SDS011;27244;59.940;30.280;2023-02-23T06:42:54;10.73;;;5.70;;
41512;SDS011;27244;59.940;30.280;2023-02-23T06:45:22;7.40;;;5.32;;
41512;SDS011;27244;59.940;30.280;2023-02-23T06:47:49;18.65;;;6.97;;
41512;SDS011;27244;59.940;30.280;2023-02-23T06:50:18;7.60;;;5.50;;
41512;SDS011;27244;59.940;30.280;2023-02-23T06:52:47;17.98;;;6.22;;
41512;SDS011;27244;59.940;30.280;2023-02-23T06:55:14;9.23;;;5.57;;
41512;SDS011;27244;59.940;30.280;2023-02-23T06:57:41;11.35;;;5.70;;
41512;SDS011;27244;59.940;30.280;2023-02-23T07:00:08;14.60;;;6.07;;
41512;SDS011;27244;59.940;30.280;2023-02-23T07:02:36;8.15;;;5.20;;
41512;SDS011;27244;59.940;30.280;2023-02-23T07:05:04;8.25;;;4.80;;
41512;SDS011;27244;59.940;30.280;2023-02-23T07:07:31;13.50;;;5.70;;
41512;SDS011;27244;59.940;30.280;2023-02-23T07:09:59;7.68;;;5.40;;
41512;SDS011;27244;59.940;30.280;2023-02-23T07:12:28;7.97;;;5.40;;
41512;SDS011;27244;59.940;30.280;2023-02-23T07:14:55;8.98;;;5.85;;
41512;SDS011;27244;59.940;30.280;2023-02-23T07:17:22;12.40;;;4.80;;
41512;SDS011;27244;59.940;30.280;2023-02-23T07:19:49;7.03;;;5.15;;
41512;SDS011;27244;59.940;30.280;2023-02-23T07:22:16;9.45;;;5.03;;
41512;SDS011;27244;59.940;30.280;2023-02-23T07:24:43;7.63;;;5.13;;
41512;SDS011;27244;59.940;30.280;2023-02-23T07:27:11;7.47;;;5.07;;
41512;SDS011;27244;59.940;30.280;2023-02-23T07:29:38;4.95;;;4.38;;
41512;SDS011;27244;59.940;30.280;2023-02-23T07:32:05;6.70;;;4.50;;
41512;SDS011;27244;59.940;30.280;2023-02-23T07:34:32;6.68;;;5.20;;
41512;SDS011;27244;59.940;30.280;2023-02-23T07:36:59;8.93;;;4.63;;
41512;SDS011;27244;59.940;30.280;2023-02-23T07:39:26;6.43;;;4.55;;
41512;SDS011;27244;59.940;30.280;2023-02-23T07:41:53;7.78;;;4.70;;
41512;SDS011;27244;59.940;30.280;2023-02-23T07:44:23;6.53;;;4.78;;
41512;SDS011;27244;59.940;30.280;2023-02-23T07:46:50;7.18;;;4.82;;
41512;SDS011;27244;59.940;30.280;2023-02-23T07:49:17;4.78;;;4.25;;
41512;SDS011;27244;59.940;30.280;2023-02-23T07:51:44;6.45;;;4.72;;
41512;SDS011;27244;59.940;30.280;2023-02-23T07:54:11;6.30;;;4.68;;
41512;SDS011;27244;59.940;30.280;2023-02-23T07:56:39;5.32;;;4.55;;
41512;SDS011;27244;59.940;30.280;2023-02-23T07:59:06;5.70;;;4.53;;
41512;SDS011;27244;59.940;30.280;2023-02-23T08:01:34;8.43;;;4.88;;
41512;SDS011;27244;59.940;30.280;2023-02-23T08:04:01;8.88;;;5.90;;
41512;SDS011;27244;59.940;30.280;2023-02-23T08:06:28;6.38;;;4.90;;
41512;SDS011;27244;59.940;30.280;2023-02-23T08:08:57;8.70;;;5.65;;
41512;SDS011;27244;59.940;30.280;2023-02-23T08:11:24;6.10;;;5.22;;
41512;SDS011;27244;59.940;30.280;2023-02-23T08:13:52;6.18;;;5.05;;
41512;SDS011;27244;59.940;30.280;2023-02-23T08:16:20;7.25;;;5.45;;
41512;SDS011;27244;59.940;30.280;2023-02-23T08:18:49;6.78;;;5.50;;
41512;SDS011;27244;59.940;30.280;2023-02-23T08:21:16;7.13;;;5.45;;
41512;SDS011;27244;59.940;30.280;2023-02-23T08:23:43;8.07;;;5.07;;
41512;SDS011;27244;59.940;30.280;2023-02-23T08:26:10;7.50;;;5.38;;
41512;SDS011;27244;59.940;30.280;2023-02-23T08:28:37;6.50;;;5.32;;
41512;SDS011;27244;59.940;30.280;2023-02-23T08:31:07;7.57;;;5.65;;
41512;SDS011;27244;59.940;30.280;2023-02-23T08:33:35;8.63;;;6.30;;
41512;SDS011;27244;59.940;30.280;2023-02-23T08:36:04;12.18;;;6.65;;
41512;SDS011;27244;59.940;30.280;2023-02-23T08:38:33;8.27;;;6.57;;
41512;SDS011;27244;59.940;30.280;2023-02-23T08:41:00;9.50;;;6.05;;
41512;SDS011;27244;59.940;30.280;2023-02-23T08:43:27;7.50;;;6.70;;
41512;SDS011;27244;59.940;30.280;2023-02-23T08:45:55;9.77;;;7.28;;
41512;SDS011;27244;59.940;30.280;2023-02-23T08:48:23;9.82;;;7.20;;
41512;SDS011;27244;59.940;30.280;2023-02-23T08:50:56;13.35;;;7.68;;
41512;SDS011;27244;59.940;30.280;2023-02-23T08:53:25;14.73;;;8.00;;
41512;SDS011;27244;59.940;30.280;2023-02-23T08:55:57;20.95;;;9.30;;
41512;SDS011;27244;59.940;30.280;2023-02-23T08:58:24;13.23;;;8.40;;
41512;SDS011;27244;59.940;30.280;2023-02-23T09:00:52;14.77;;;8.93;;
41512;SDS011;27244;59.940;30.280;2023-02-23T09:03:19;15.10;;;10.02;;
41512;SDS011;27244;59.940;30.280;2023-02-23T09:05:46;16.48;;;10.18;;
41512;SDS011;27244;59.940;30.280;2023-02-23T09:08:15;14.82;;;9.98;;
41512;SDS011;27244;59.940;30.280;2023-02-23T09:10:43;15.30;;;10.45;;
41512;SDS011;27244;59.940;30.280;2023-02-23T09:13:10;14.45;;;10.02;;
41512;SDS011;27244;59.940;30.280;2023-02-23T09:15:38;16.20;;;11.20;;
41512;SDS011;27244;59.940;30.280;2023-02-23T09:18:06;17.70;;;11.63;;
41512;SDS011;27244;59.940;30.280;2023-02-23T09:20:33;19.13;;;12.02;;
41512;SDS011;27244;59.940;30.280;2023-02-23T09:23:00;19.58;;;12.77;;
41512;SDS011;27244;59.940;30.280;2023-02-23T09:25:27;21.00;;;13.25;;
41512;SDS011;27244;59.940;30.280;2023-02-23T09:27:57;23.15;;;13.80;;
41512;SDS011;27244;59.940;30.280;2023-02-23T09:30:24;18.95;;;12.02;;
41512;SDS011;27244;59.940;30.280;2023-02-23T09:32:52;22.23;;;13.93;;
41512;SDS011;27244;59.940;30.280;2023-02-23T09:35:21;20.88;;;14.15;;
41512;SDS011;27244;59.940;30.280;2023-02-23T09:37:50;21.00;;;14.60;;
41512;SDS011;27244;59.940;30.280;2023-02-23T09:40:20;21.58;;;14.23;;
41512;SDS011;27244;59.940;30.280;2023-02-23T09:42:52;20.67;;;14.30;;
41512;SDS011;27244;59.940;30.280;2023-02-23T09:45:28;22.08;;;14.32;;
41512;SDS011;27244;59.940;30.280;2023-02-23T09:48:08;22.13;;;14.95;;
41512;SDS011;27244;59.940;30.280;2023-02-23T09:50:41;22.73;;;15.13;;
41512;SDS011;27244;59.940;30.280;2023-02-23T09:53:14;23.73;;;16.20;;
41512;SDS011;27244;59.940;30.280;2023-02-23T09:55:50;22.92;;;16.05;;
41512;SDS011;27244;59.940;30.280;2023-02-23T09:58:21;27.48;;;16.83;;
41512;SDS011;27244;59.940;30.280;2023-02-23T10:00:51;24.42;;;16.65;;
41512;SDS011;27244;59.940;30.280;2023-02-23T10:03:30;22.77;;;16.33;;
41512;SDS011;27244;59.940;30.280;2023-02-23T10:06:01;25.73;;;17.52;;
41512;SDS011;27244;59.940;30.280;2023-02-23T10:11:16;23.30;;;16.98;;
41512;SDS011;27244;59.940;30.280;2023-02-23T10:13:53;23.52;;;17.05;;
41512;SDS011;27244;59.940;30.280;2023-02-23T10:16:29;24.80;;;18.05;;
41512;SDS011;27244;59.940;30.280;2023-02-23T10:19:05;24.42;;;17.77;;
41512;SDS011;27244;59.940;30.280;2023-02-23T10:21:45;25.63;;;18.70;;
41512;SDS011;27244;59.940;30.280;2023-02-23T10:24:17;24.35;;;19.10;;
41512;SDS011;27244;59.940;30.280;2023-02-23T10:26:50;31.95;;;21.92;;
41512;SDS011;27244;59.940;30.280;2023-02-23T10:29:22;30.20;;;21.10;;
41512;SDS011;27244;59.940;30.280;2023-02-23T10:31:58;28.30;;;21.85;;
41512;SDS011;27244;59.940;30.280;2023-02-23T10:34:32;25.55;;;20.60;;
41512;SDS011;27244;59.940;30.280;2023-02-23T10:37:04;29.58;;;21.35;;
41512;SDS011;27244;59.940;30.280;2023-02-23T10:39:43;28.30;;;21.55;;
41512;SDS011;27244;59.940;30.280;2023-02-23T10:42:12;27.13;;;20.25;;
41512;SDS011;27244;59.940;30.280;2023-02-23T10:44:42;28.23;;;21.25;;
41512;SDS011;27244;59.940;30.280;2023-02-23T10:47:18;26.25;;;20.50;;
41512;SDS011;27244;59.940;30.280;2023-02-23T10:50:06;28.60;;;22.58;;
41512;SDS011;27244;59.940;30.280;2023-02-23T10:52:44;28.58;;;21.70;;
41512;SDS011;27244;59.940;30.280;2023-02-23T10:55:19;29.85;;;20.20;;
41512;SDS011;27244;59.940;30.280;2023-02-23T10:57:59;26.25;;;20.40;;
41512;SDS011;27244;59.940;30.280;2023-02-23T11:00:35;28.60;;;19.75;;
41512;SDS011;27244;59.940;30.280;2023-02-23T11:03:14;29.88;;;21.50;;
41512;SDS011;27244;59.940;30.280;2023-02-23T11:05:44;31.00;;;21.83;;
41512;SDS011;27244;59.940;30.280;2023-02-23T11:13:46;61.58;;;38.55;;
41512;SDS011;27244;59.940;30.280;2023-02-23T11:16:22;60.40;;;37.22;;
41512;SDS011;27244;59.940;30.280;2023-02-23T11:18:51;59.17;;;36.53;;
41512;SDS011;27244;59.940;30.280;2023-02-23T11:21:23;64.13;;;39.77;;
41512;SDS011;27244;59.940;30.280;2023-02-23T11:23:58;71.20;;;40.58;;
41512;SDS011;27244;59.940;30.280;2023-02-23T11:26:35;84.38;;;46.05;;
41512;SDS011;27244;59.940;30.280;2023-02-23T11:29:34;94.97;;;53.50;;
41512;SDS011;27244;59.940;30.280;2023-02-23T11:32:14;105.32;;;58.47;;
41512;SDS011;27244;59.940;30.280;2023-02-23T11:35:11;98.65;;;53.15;;
41512;SDS011;27244;59.940;30.280;2023-02-23T11:38:05;87.43;;;47.60;;
41512;SDS011;27244;59.940;30.280;2023-02-23T11:40:56;73.68;;;40.85;;
41512;SDS011;27244;59.940;30.280;2023-02-23T11:43:37;66.75;;;39.42;;
41512;SDS011;27244;59.940;30.280;2023-02-23T11:46:21;64.53;;;35.17;;
41512;SDS011;27244;59.940;30.280;2023-02-23T11:49:20;57.25;;;33.38;;
41512;SDS011;27244;59.940;30.280;2023-02-23T11:52:03;45.72;;;29.58;;
41512;SDS011;27244;59.940;30.280;2023-02-23T11:54:50;44.90;;;26.60;;
41512;SDS011;27244;59.940;30.280;2023-02-23T11:57:40;43.28;;;25.50;;
41512;SDS011;27244;59.940;30.280;2023-02-23T12:00:10;40.17;;;24.10;;
41512;SDS011;27244;59.940;30.280;2023-02-23T12:03:05;36.20;;;22.48;;
41512;SDS011;27244;59.940;30.280;2023-02-23T12:05:35;36.65;;;22.75;;
41512;SDS011;27244;59.940;30.280;2023-02-23T12:11:23;35.00;;;20.25;;
41512;SDS011;27244;59.940;30.280;2023-02-23T12:14:23;33.95;;;21.02;;
41512;SDS011;27244;59.940;30.280;2023-02-23T12:17:07;33.53;;;20.02;;
41512;SDS011;27244;59.940;30.280;2023-02-23T12:19:42;31.20;;;18.98;;
41512;SDS011;27244;59.940;30.280;2023-02-23T12:22:15;31.45;;;19.10;;
41512;SDS011;27244;59.940;30.280;2023-02-23T12:24:46;32.33;;;18.88;;
41512;SDS011;27244;59.940;30.280;2023-02-23T12:27:18;29.83;;;17.85;;
41512;SDS011;27244;59.940;30.280;2023-02-23T12:29:55;31.95;;;18.85;;
41512;SDS011;27244;59.940;30.280;2023-02-23T12:32:33;34.00;;;18.42;;
41512;SDS011;27244;59.940;30.280;2023-02-23T12:35:12;28.48;;;15.80;;
41512;SDS011;27244;59.940;30.280;2023-02-23T12:37:46;27.33;;;16.98;;
41512;SDS011;27244;59.940;30.280;2023-02-23T12:40:15;26.40;;;16.52;;
41512;SDS011;27244;59.940;30.280;2023-02-23T12:42:48;25.40;;;16.38;;
41512;SDS011;27244;59.940;30.280;2023-02-23T12:45:23;26.08;;;16.60;;
41512;SDS011;27244;59.940;30.280;2023-02-23T12:47:58;24.73;;;15.30;;
41512;SDS011;27244;59.940;30.280;2023-02-23T12:50:32;24.27;;;15.00;;
41512;SDS011;27244;59.940;30.280;2023-02-23T12:53:06;24.95;;;14.18;;
41512;SDS011;27244;59.940;30.280;2023-02-23T12:55:44;27.17;;;14.65;;
41512;SDS011;27244;59.940;30.280;2023-02-23T12:58:23;22.67;;;14.57;;
41512;SDS011;27244;59.940;30.280;2023-02-23T13:00:58;22.65;;;13.93;;
41512;SDS011;27244;59.940;30.280;2023-02-23T13:06:28;22.23;;;13.73;;
41512;SDS011;27244;59.940;30.280;2023-02-23T13:09:09;20.38;;;13.20;;
41512;SDS011;27244;59.940;30.280;2023-02-23T13:12:03;19.63;;;12.15;;
41512;SDS011;27244;59.940;30.280;2023-02-23T13:14:42;21.58;;;12.68;;
41512;SDS011;27244;59.940;30.280;2023-02-23T13:17:21;18.70;;;12.32;;
41512;SDS011;27244;59.940;30.280;2023-02-23T13:19:57;16.55;;;12.05;;
41512;SDS011;27244;59.940;30.280;2023-02-23T13:23:03;21.45;;;12.75;;
41512;SDS011;27244;59.940;30.280;2023-02-23T13:25:42;18.38;;;12.02;;
41512;SDS011;27244;59.940;30.280;2023-02-23T13:28:17;18.67;;;11.40;;
41512;SDS011;27244;59.940;30.280;2023-02-23T13:30:47;17.85;;;11.55;;
41512;SDS011;27244;59.940;30.280;2023-02-23T13:33:17;16.65;;;10.77;;
41512;SDS011;27244;59.940;30.280;2023-02-23T13:35:51;15.57;;;10.45;;
41512;SDS011;27244;59.940;30.280;2023-02-23T13:38:20;17.15;;;10.55;;
41512;SDS011;27244;59.940;30.280;2023-02-23T13:40:54;15.60;;;10.18;;
41512;SDS011;27244;59.940;30.280;2023-02-23T13:43:30;16.00;;;9.88;;
41512;SDS011;27244;59.940;30.280;2023-02-23T13:46:11;14.13;;;9.85;;
41512;SDS011;27244;59.940;30.280;2023-02-23T13:48:49;15.02;;;9.57;;
41512;SDS011;27244;59.940;30.280;2023-02-23T13:51:22;15.15;;;10.02;;
41512;SDS011;27244;59.940;30.280;2023-02-23T13:54:02;14.73;;;9.93;;
41512;SDS011;27244;59.940;30.280;2023-02-23T13:56:35;12.73;;;9.32;;
41512;SDS011;27244;59.940;30.280;2023-02-23T13:59:08;14.35;;;9.07;;
41512;SDS011;27244;59.940;30.280;2023-02-23T14:01:43;13.70;;;9.52;;
41512;SDS011;27244;59.940;30.280;2023-02-23T14:04:13;14.27;;;8.95;;
41512;SDS011;27244;59.940;30.280;2023-02-23T14:06:50;12.75;;;9.15;;
41512;SDS011;27244;59.940;30.280;2023-02-23T14:09:21;12.88;;;9.32;;
41512;SDS011;27244;59.940;30.280;2023-02-23T14:12:03;16.02;;;9.95;;
41512;SDS011;27244;59.940;30.280;2023-02-23T14:14:43;15.13;;;9.05;;
41512;SDS011;27244;59.940;30.280;2023-02-23T14:20:37;19.35;;;8.35;;
41512;SDS011;27244;59.940;30.280;2023-02-23T14:29:21;12.20;;;8.20;;
41512;SDS011;27244;59.940;30.280;2023-02-23T14:31:58;13.98;;;8.52;;
41512;SDS011;27244;59.940;30.280;2023-02-23T14:34:47;13.40;;;8.23;;
41512;SDS011;27244;59.940;30.280;2023-02-23T14:37:17;13.40;;;8.00;;
41512;SDS011;27244;59.940;30.280;2023-02-23T14:39:49;11.88;;;8.02;;
41512;SDS011;27244;59.940;30.280;2023-02-23T14:42:22;10.82;;;7.32;;
41512;SDS011;27244;59.940;30.280;2023-02-23T14:44:53;11.23;;;7.28;;
41512;SDS011;27244;59.940;30.280;2023-02-23T14:47:24;10.82;;;7.60;;
41512;SDS011;27244;59.940;30.280;2023-02-23T14:49:53;11.25;;;7.85;;
41512;SDS011;27244;59.940;30.280;2023-02-23T14:52:23;13.18;;;7.53;;
41512;SDS011;27244;59.940;30.280;2023-02-23T14:54:51;13.00;;;8.20;;
41512;SDS011;27244;59.940;30.280;2023-02-23T14:57:34;11.85;;;8.25;;
41512;SDS011;27244;59.940;30.280;2023-02-23T15:00:06;15.02;;;8.82;;
41512;SDS011;27244;59.940;30.280;2023-02-23T15:02:37;13.52;;;8.27;;
41512;SDS011;27244;59.940;30.280;2023-02-23T15:05:13;15.27;;;8.55;;
41512;SDS011;27244;59.940;30.280;2023-02-23T15:07:41;11.60;;;8.57;;
41512;SDS011;27244;59.940;30.280;2023-02-23T15:10:11;12.50;;;8.15;;
41512;SDS011;27244;59.940;30.280;2023-02-23T15:12:43;12.40;;;8.10;;
41512;SDS011;27244;59.940;30.280;2023-02-23T15:15:21;15.00;;;9.20;;
41512;SDS011;27244;59.940;30.280;2023-02-23T15:17:51;13.25;;;9.25;;
41512;SDS011;27244;59.940;30.280;2023-02-23T15:20:20;15.52;;;9.95;;
41512;SDS011;27244;59.940;30.280;2023-02-23T15:22:53;15.32;;;9.95;;
41512;SDS011;27244;59.940;30.280;2023-02-23T15:25:23;14.63;;;11.23;;
41512;SDS011;27244;59.940;30.280;2023-02-23T15:27:58;15.57;;;10.30;;